MSC Karlskrona — CQHV — position and weather

sailwx.info

Track history (hours):
 
Tides and Currents Weather Stations Pressure Air Temp Water Temp Dewpoint Dewpoint Depression Visibility Wind Speed Wind Dir Waves Ship Positions

MSC Karlskrona

Last reported at 2017-Sep-15 06:00 UTC. Time now 2017-Sep-20 21:56 UTC.
Position N 20°23' W 096°28'.

Length 318 m; draft 9.7 m.

Type: Ship (hazmat cat A). MMSI: 255805597.

Date/timePositionNaut miles runAvg speedWind from/ knotsBaromVisibWave heightAir tempDewpointWater temp
2017-Sep-15 06:00N 20°23' W 096°28'1019.6
2017-Sep-15 05:30N 20°14' W 096°23'1019.8
2017-Sep-15 05:00N 20°05' W 096°19'1019.9
2017-Sep-15 04:30N 19°56' W 096°14'1020.3
2017-Sep-15 04:00N 19°47' W 096°10'1020.2
2017-Sep-15 03:30N 19°38' W 096°06'1020.4
2017-Sep-15 03:00N 19°28' W 096°02'1020.5
2017-Sep-15 02:30N 19°19' W 095°58'917.9
2017-Sep-15 02:00N 19°11' W 096°03'510.0
2017-Sep-15 01:31N 19°12' W 096°08'1 1.1
2017-Sep-15 00:59N 19°13' W 096°08'0 0.0
2017-Sep-15 00:29N 19°13' W 096°08'0 0.0
2017-Sep-15 00:00N 19°13' W 096°08'0 0.0
2017-Sep-14 23:28N 19°13' W 096°08'0 0.0
2017-Sep-14 22:59N 19°13' W 096°08'0 0.0
2017-Sep-14 22:30N 19°13' W 096°08'0 0.0
2017-Sep-14 22:00N 19°13' W 096°08'0 0.0
2017-Sep-14 21:28N 19°13' W 096°08'0 0.0
2017-Sep-14 20:58N 19°13' W 096°08'0 0.0
2017-Sep-14 20:29N 19°13' W 096°08'0 0.0
2017-Sep-14 19:59N 19°13' W 096°08'0 0.0
2017-Sep-14 19:30N 19°13' W 096°08'0 0.0
2017-Sep-14 19:00N 19°13' W 096°08'0 0.0
2017-Sep-14 18:30N 19°13' W 096°08'0 0.0
2017-Sep-14 17:58N 19°13' W 096°08'0 0.0
2017-Sep-14 17:22N 19°13' W 096°08'0 0.0
2017-Sep-14 17:00N 19°13' W 096°08'0 0.0
2017-Sep-14 16:28N 19°13' W 096°08'0 0.0
2017-Sep-14 15:58N 19°13' W 096°08'0 0.0
2017-Sep-14 15:30N 19°13' W 096°08'0 0.0
2017-Sep-14 14:59N 19°13' W 096°08'0 0.0
2017-Sep-14 14:29N 19°13' W 096°08'0 0.0
2017-Sep-14 13:59N 19°13' W 096°08'0 0.0
2017-Sep-14 13:30N 19°13' W 096°08'0 0.0
2017-Sep-14 13:00N 19°13' W 096°08'0 0.0
2017-Sep-14 12:28N 19°13' W 096°08'0 0.0
2017-Sep-14 11:58N 19°13' W 096°08'0 0.0
2017-Sep-14 11:29N 19°13' W 096°08'0 0.0
2017-Sep-14 10:59N 19°13' W 096°08'0 0.0
2017-Sep-14 10:30N 19°13' W 096°08'0 0.0
2017-Sep-14 10:00N 19°13' W 096°08'0 0.0
2017-Sep-14 09:29N 19°13' W 096°08'0 0.0
2017-Sep-14 08:56N 19°13' W 096°08'0 0.0
2017-Sep-14 08:30N 19°13' W 096°08'0 0.0
2017-Sep-14 08:00N 19°13' W 096°08'0 0.0
2017-Sep-14 07:30N 19°13' W 096°08'0 0.0
2017-Sep-14 06:58N 19°13' W 096°08'0 0.0
2017-Sep-14 06:30N 19°13' W 096°08'0 0.0
2017-Sep-14 05:59N 19°13' W 096°08'0 0.0
2017-Sep-14 05:26N 19°13' W 096°08'0 0.0
2017-Sep-14 04:58N 19°13' W 096°08'0 0.4
2017-Sep-14 04:30N 19°12' W 096°08'4 7.1
2017-Sep-14 04:00N 19°11' W 096°04'4 8.8
2017-Sep-14 03:30N 19°09' W 096°01'1 1.3
2017-Sep-14 02:59N 19°09' W 096°00'0 0.0
2017-Sep-14 02:29N 19°09' W 096°00'0 0.0
2017-Sep-14 01:59N 19°09' W 096°00'0 0.1
2017-Sep-14 01:29N 19°08' W 096°00'0 0.0
2017-Sep-14 00:59N 19°08' W 096°00'0 0.1
2017-Sep-14 00:29N 19°08' W 096°00'0 0.0
2017-Sep-13 23:59N 19°08' W 096°00'0 0.0
2017-Sep-13 23:29N 19°08' W 096°00'0 0.0
2017-Sep-13 22:59N 19°08' W 096°00'0 0.0
2017-Sep-13 22:29N 19°08' W 096°00'0 0.0
2017-Sep-13 21:57N 19°08' W 096°00'0 0.0
2017-Sep-13 21:21N 19°08' W 096°00'0 0.0
2017-Sep-13 20:57N 19°08' W 096°00'0 0.0
2017-Sep-13 20:27N 19°08' W 096°00'0 0.0
2017-Sep-13 19:57N 19°08' W 096°00'0 0.1
2017-Sep-13 19:27N 19°08' W 095°60'1 1.3
2017-Sep-13 19:00N 19°09' W 096°01'4 7.7
2017-Sep-13 18:30N 19°12' W 095°58'612.9
2017-Sep-13 18:00N 19°14' W 095°52'815.8
2017-Sep-13 17:30N 19°15' W 095°44'816.8
2017-Sep-13 17:00N 19°19' W 095°36'918.5
2017-Sep-13 16:30N 19°24' W 095°28'1918.5
2017-Sep-13 15:27N 19°36' W 095°11'918.6
2017-Sep-13 14:59N 19°41' W 095°04'918.4
2017-Sep-13 14:30N 19°46' W 094°56'  
2017-Sep-09 00:21N 31°50' W 080°29'616.9
2017-Sep-09 00:00N 31°53' W 080°35'815.2
2017-Sep-08 23:30N 31°57' W 080°42'612.2
2017-Sep-08 23:00N 32°01' W 080°48'611.3
2017-Sep-08 22:30N 32°02' W 080°55'611.2
2017-Sep-08 22:00N 32°06' W 080°60'5 9.6
2017-Sep-08 21:30N 32°05' W 081°05'3 5.3
2017-Sep-08 21:00N 32°07' W 081°08'1 1.7
2017-Sep-08 20:21N 32°08' W 081°08'0 0.0
2017-Sep-08 19:56N 32°08' W 081°08'0 0.0
2017-Sep-08 19:27N 32°08' W 081°08'0 0.0
2017-Sep-08 18:56N 32°08' W 081°08'0 0.0
2017-Sep-08 18:27N 32°08' W 081°08'0 0.0
2017-Sep-08 17:56N 32°08' W 081°08'0 0.0
2017-Sep-08 17:27N 32°08' W 081°08'0 0.0
2017-Sep-08 16:57N 32°08' W 081°08'0 0.0
2017-Sep-08 16:26N 32°08' W 081°08'0 0.0
2017-Sep-08 15:56N 32°08' W 081°08'0 0.0
2017-Sep-08 15:21N 32°08' W 081°08'0 0.0
2017-Sep-08 14:58N 32°08' W 081°08'0 0.0
2017-Sep-08 14:27N 32°08' W 081°08'0 0.0
2017-Sep-08 13:46N 32°08' W 081°08'0 0.0
2017-Sep-08 13:27N 32°08' W 081°08'0 0.0
2017-Sep-08 12:58N 32°08' W 081°08'0 0.0
2017-Sep-08 12:15N 32°08' W 081°08'0 0.0
2017-Sep-08 11:58N 32°08' W 081°08'0 0.0
2017-Sep-08 11:22N 32°08' W 081°08'0 0.0
2017-Sep-08 10:58N 32°08' W 081°08'0 0.0
2017-Sep-08 10:24N 32°08' W 081°08'0 0.7
2017-Sep-08 10:00N 32°08' W 081°08'1 2.9
2017-Sep-08 09:30N 32°07' W 081°08'2 4.6
2017-Sep-08 09:00N 32°05' W 081°06'2 5.0
2017-Sep-08 08:30N 32°05' W 081°03'3 6.5
2017-Sep-08 08:00N 32°05' W 080°59'4 8.8
2017-Sep-08 07:30N 32°02' W 080°55'5 9.1
2017-Sep-08 07:00N 32°02' W 080°49'5 9.7
2017-Sep-08 06:30N 31°59' W 080°45'4 7.3
2017-Sep-08 06:00N 31°57' W 080°41'4 8.6
2017-Sep-08 05:30N 31°56' W 080°36'713.4
2017-Sep-08 05:00N 31°56' W 080°28'714.3
2017-Sep-08 04:30N 31°57' W 080°20'57 4.2
2017-Sep-07 14:49N 32°50' W 079°54'0 0.0
2017-Sep-07 14:30N 32°50' W 079°54'0 0.0
2017-Sep-07 13:57N 32°50' W 079°54'0 0.0
2017-Sep-07 13:25N 32°50' W 079°54'9 1.3
2017-Sep-07 06:20N 32°43' W 079°47'815.2
2017-Sep-07 05:49N 32°39' W 079°39'  
Track history (hours):
 
Tides and Currents Weather Stations Pressure Air Temp Water Temp Dewpoint Dewpoint Depression Visibility Wind Speed Wind Dir Waves Ship Positions

MSC Karlskrona

Last reported at 2017-Sep-15 06:00 UTC. Time now 2017-Sep-20 21:56 UTC.
Position N 20°23' W 096°28'.

Length 318 m; draft 9.7 m.

Type: Ship (hazmat cat A). MMSI: 255805597.

Date/timePositionNaut miles runAvg speedWind from/ knotsBaromVisibWave heightAir tempDewpointWater temp
2017-Sep-15 06:00N 20°23' W 096°28'1019.6
2017-Sep-15 05:30N 20°14' W 096°23'1019.8
2017-Sep-15 05:00N 20°05' W 096°19'1019.9
2017-Sep-15 04:30N 19°56' W 096°14'1020.3
2017-Sep-15 04:00N 19°47' W 096°10'1020.2
2017-Sep-15 03:30N 19°38' W 096°06'1020.4
2017-Sep-15 03:00N 19°28' W 096°02'1020.5
2017-Sep-15 02:30N 19°19' W 095°58'917.9
2017-Sep-15 02:00N 19°11' W 096°03'510.0
2017-Sep-15 01:31N 19°12' W 096°08'1 1.1
2017-Sep-15 00:59N 19°13' W 096°08'0 0.0
2017-Sep-15 00:29N 19°13' W 096°08'0 0.0
2017-Sep-15 00:00N 19°13' W 096°08'0 0.0
2017-Sep-14 23:28N 19°13' W 096°08'0 0.0
2017-Sep-14 22:59N 19°13' W 096°08'0 0.0
2017-Sep-14 22:30N 19°13' W 096°08'0 0.0
2017-Sep-14 22:00N 19°13' W 096°08'0 0.0
2017-Sep-14 21:28N 19°13' W 096°08'0 0.0
2017-Sep-14 20:58N 19°13' W 096°08'0 0.0
2017-Sep-14 20:29N 19°13' W 096°08'0 0.0
2017-Sep-14 19:59N 19°13' W 096°08'0 0.0
2017-Sep-14 19:30N 19°13' W 096°08'0 0.0
2017-Sep-14 19:00N 19°13' W 096°08'0 0.0
2017-Sep-14 18:30N 19°13' W 096°08'0 0.0
2017-Sep-14 17:58N 19°13' W 096°08'0 0.0
2017-Sep-14 17:22N 19°13' W 096°08'0 0.0
2017-Sep-14 17:00N 19°13' W 096°08'0 0.0
2017-Sep-14 16:28N 19°13' W 096°08'0 0.0
2017-Sep-14 15:58N 19°13' W 096°08'0 0.0
2017-Sep-14 15:30N 19°13' W 096°08'0 0.0
2017-Sep-14 14:59N 19°13' W 096°08'0 0.0
2017-Sep-14 14:29N 19°13' W 096°08'0 0.0
2017-Sep-14 13:59N 19°13' W 096°08'0 0.0
2017-Sep-14 13:30N 19°13' W 096°08'0 0.0
2017-Sep-14 13:00N 19°13' W 096°08'0 0.0
2017-Sep-14 12:28N 19°13' W 096°08'0 0.0
2017-Sep-14 11:58N 19°13' W 096°08'0 0.0
2017-Sep-14 11:29N 19°13' W 096°08'0 0.0
2017-Sep-14 10:59N 19°13' W 096°08'0 0.0
2017-Sep-14 10:30N 19°13' W 096°08'0 0.0
2017-Sep-14 10:00N 19°13' W 096°08'0 0.0
2017-Sep-14 09:29N 19°13' W 096°08'0 0.0
2017-Sep-14 08:56N 19°13' W 096°08'0 0.0
2017-Sep-14 08:30N 19°13' W 096°08'0 0.0
2017-Sep-14 08:00N 19°13' W 096°08'0 0.0
2017-Sep-14 07:30N 19°13' W 096°08'0 0.0
2017-Sep-14 06:58N 19°13' W 096°08'0 0.0
2017-Sep-14 06:30N 19°13' W 096°08'0 0.0
2017-Sep-14 05:59N 19°13' W 096°08'0 0.0
2017-Sep-14 05:26N 19°13' W 096°08'0 0.0
2017-Sep-14 04:58N 19°13' W 096°08'0 0.4
2017-Sep-14 04:30N 19°12' W 096°08'4 7.1
2017-Sep-14 04:00N 19°11' W 096°04'4 8.8
2017-Sep-14 03:30N 19°09' W 096°01'1 1.3
2017-Sep-14 02:59N 19°09' W 096°00'0 0.0
2017-Sep-14 02:29N 19°09' W 096°00'0 0.0
2017-Sep-14 01:59N 19°09' W 096°00'0 0.1
2017-Sep-14 01:29N 19°08' W 096°00'0 0.0
2017-Sep-14 00:59N 19°08' W 096°00'0 0.1
2017-Sep-14 00:29N 19°08' W 096°00'0 0.0
2017-Sep-13 23:59N 19°08' W 096°00'0 0.0
2017-Sep-13 23:29N 19°08' W 096°00'0 0.0
2017-Sep-13 22:59N 19°08' W 096°00'0 0.0
2017-Sep-13 22:29N 19°08' W 096°00'0 0.0
2017-Sep-13 21:57N 19°08' W 096°00'0 0.0
2017-Sep-13 21:21N 19°08' W 096°00'0 0.0
2017-Sep-13 20:57N 19°08' W 096°00'0 0.0
2017-Sep-13 20:27N 19°08' W 096°00'0 0.0
2017-Sep-13 19:57N 19°08' W 096°00'0 0.1
2017-Sep-13 19:27N 19°08' W 095°60'1 1.3
2017-Sep-13 19:00N 19°09' W 096°01'4 7.7
2017-Sep-13 18:30N 19°12' W 095°58'612.9
2017-Sep-13 18:00N 19°14' W 095°52'815.8
2017-Sep-13 17:30N 19°15' W 095°44'816.8
2017-Sep-13 17:00N 19°19' W 095°36'918.5
2017-Sep-13 16:30N 19°24' W 095°28'1918.5
2017-Sep-13 15:27N 19°36' W 095°11'918.6
2017-Sep-13 14:59N 19°41' W 095°04'918.4
2017-Sep-13 14:30N 19°46' W 094°56'  
2017-Sep-09 00:21N 31°50' W 080°29'616.9
2017-Sep-09 00:00N 31°53' W 080°35'815.2
2017-Sep-08 23:30N 31°57' W 080°42'612.2
2017-Sep-08 23:00N 32°01' W 080°48'611.3
2017-Sep-08 22:30N 32°02' W 080°55'611.2
2017-Sep-08 22:00N 32°06' W 080°60'5 9.6
2017-Sep-08 21:30N 32°05' W 081°05'3 5.3
2017-Sep-08 21:00N 32°07' W 081°08'1 1.7
2017-Sep-08 20:21N 32°08' W 081°08'0 0.0
2017-Sep-08 19:56N 32°08' W 081°08'0 0.0
2017-Sep-08 19:27N 32°08' W 081°08'0 0.0
2017-Sep-08 18:56N 32°08' W 081°08'0 0.0
2017-Sep-08 18:27N 32°08' W 081°08'0 0.0
2017-Sep-08 17:56N 32°08' W 081°08'0 0.0
2017-Sep-08 17:27N 32°08' W 081°08'0 0.0
2017-Sep-08 16:57N 32°08' W 081°08'0 0.0
2017-Sep-08 16:26N 32°08' W 081°08'0 0.0
2017-Sep-08 15:56N 32°08' W 081°08'0 0.0
2017-Sep-08 15:21N 32°08' W 081°08'0 0.0
2017-Sep-08 14:58N 32°08' W 081°08'0 0.0
2017-Sep-08 14:27N 32°08' W 081°08'0 0.0
2017-Sep-08 13:46N 32°08' W 081°08'0 0.0
2017-Sep-08 13:27N 32°08' W 081°08'0 0.0
2017-Sep-08 12:58N 32°08' W 081°08'0 0.0
2017-Sep-08 12:15N 32°08' W 081°08'0 0.0
2017-Sep-08 11:58N 32°08' W 081°08'0 0.0
2017-Sep-08 11:22N 32°08' W 081°08'0 0.0
2017-Sep-08 10:58N 32°08' W 081°08'0 0.0
2017-Sep-08 10:24N 32°08' W 081°08'0 0.7
2017-Sep-08 10:00N 32°08' W 081°08'1 2.9
2017-Sep-08 09:30N 32°07' W 081°08'2 4.6
2017-Sep-08 09:00N 32°05' W 081°06'2 5.0
2017-Sep-08 08:30N 32°05' W 081°03'3 6.5
2017-Sep-08 08:00N 32°05' W 080°59'4 8.8
2017-Sep-08 07:30N 32°02' W 080°55'5 9.1
2017-Sep-08 07:00N 32°02' W 080°49'5 9.7
2017-Sep-08 06:30N 31°59' W 080°45'4 7.3
2017-Sep-08 06:00N 31°57' W 080°41'4 8.6
2017-Sep-08 05:30N 31°56' W 080°36'713.4
2017-Sep-08 05:00N 31°56' W 080°28'714.3
2017-Sep-08 04:30N 31°57' W 080°20'57 4.2
2017-Sep-07 14:49N 32°50' W 079°54'0 0.0
2017-Sep-07 14:30N 32°50' W 079°54'0 0.0
2017-Sep-07 13:57N 32°50' W 079°54'0 0.0
2017-Sep-07 13:25N 32°50' W 079°54'9 1.3
2017-Sep-07 06:20N 32°43' W 079°47'815.2
2017-Sep-07 05:49N 32°39' W 079°39'  

Dump ship's entire track history